Data for 05/09/2006

Time Sea-Level Adjusted Pressure Absolute Pressure Temperature Relative Humidity Dew Point   
(mb) (inHg) (mb) (inHg) (C) (F) (%) (C) (F)
00:05 1018 30.06 847 25.01 3.3 38 52 -5.6 21.9
00:10 1018 30.06 847 25.01 3.4 38.1 52 -5.6 21.9
00:15 1018 30.06 847 25.01 3.3 38 52 -5.6 22
00:20 1018 30.06 847 25.01 3.3 38 52 -5.7 21.8
00:25 1018 30.06 847 25.01 3.3 37.9 52 -5.7 21.8
00:30 1018 30.06 847 25.01 3.2 37.8 52 -5.7 21.8
00:35 1018 30.06 847 25.01 3.2 37.7 53 -5.6 21.9
00:40 1018 30.06 847 25.01 3.2 37.7 52 -5.7 21.7
00:45 1018 30.06 847 25.01 3.1 37.6 52 -5.8 21.6
00:50 1018 30.06 847 25.01 3.1 37.5 51 -6 21.2
00:55 1018 30.06 847 25.01 3.1 37.6 54 -5.4 22.3
01:00 1018 30.06 847 25.01 3 37.4 54 -5.3 22.5
01:05 1018 30.06 847 25.01 2.9 37.2 55 -5.3 22.4
01:10 1018 30.06 847 25.01 2.8 37 55 -5.4 22.2
01:15 1018 30.06 847 25.01 2.7 36.8 55 -5.4 22.3
01:20 1018 30.06 847 25.01 2.6 36.7 55 -5.5 22.1
01:25 1018 30.06 847 25.01 2.6 36.6 56 -5.4 22.3
01:30 1018 30.06 847 25.01 2.4 36.4 58 -4.9 23.1
01:35 1018 30.06 847 25.01 2.2 35.9 60 -4.9 23.3
01:40 1018 30.06 847 25.01 2.2 36 57 -5.3 22.4
01:45 1018 30.06 847 25.01 2.3 36.1 57 -5.3 22.5
01:50 1018 30.06 847 25.01 2.3 36.1 57 -5.3 22.4
01:55 1018 30.06 847 25.01 2.2 36 58 -5.3 22.5
02:00 1018 30.06 847 25.01 2.2 36 57 -5.5 22.2
02:05 1018 30.06 848 25.04 2.2 35.9 57 -5.6 22
02:10 1018 30.06 848 25.04 2.2 36 57 -5.4 22.2
02:15 1018 30.06 847 25.01 2.2 36 55 -5.8 21.6
02:20 1018 30.06 847 25.01 2.1 35.8 56 -5.8 21.6
02:25 1018 30.06 847 25.01 2 35.6 55 -6 21.1
02:30 1018 30.06 847 25.01 1.9 35.4 56 -6.1 21
02:35 1018 30.06 847 25.01 1.7 35 56 -6.2 20.8
02:40 1018 30.06 847 25.01 1.6 34.8 55 -6.4 20.4
02:45 1018 30.06 847 25.01 1.6 34.9 55 -6.5 20.3
02:50 1018 30.06 847 25.01 1.6 35 55 -6.5 20.2
02:55 1018 30.06 847 25.01 1.6 34.9 55 -6.5 20.2
03:00 1018 30.06 847 25.01 1.6 34.9 55 -6.5 20.3
03:05 1018 30.06 847 25.01 1.4 34.5 55 -6.7 20
03:10 1018 30.06 848 25.04 1.2 34.2 56 -6.5 20.3
03:15 1018 30.06 847 25.01 1 33.8 59 -6.2 20.9
03:20 1018 30.06 848 25.04 0.5 32.9 59 -6.7 20
03:25 1018 30.06 848 25.04 0.5 33 57 -7.1 19.3
03:30 1018 30.06 848 25.04 0.8 33.4 53 -7.7 18.1
03:35 1018 30.06 848 25.04 0.8 33.4 52 -8 17.6
03:40 1018 30.06 848 25.04 0.8 33.5 52 -8 17.5
03:45 1018 30.06 848 25.04 0.8 33.4 51 -8.1 17.4
03:50 1018 30.06 848 25.04 0.8 33.4 51 -8.1 17.4
03:55 1018 30.06 848 25.04 0.9 33.6 51 -8.2 17.3
04:00 1019 30.09 848 25.04 0.9 33.6 51 -8.1 17.4
04:05 1019 30.09 848 25.04 0.9 33.6 51 -8 17.5
04:10 1019 30.09 848 25.04 0.9 33.6 51 -8.2 17.3
04:15 1019 30.09 848 25.04 0.9 33.6 51 -8.2 17.2
04:20 1019 30.09 848 25.04 0.7 33.3 51 -8.3 17
04:25 1019 30.09 848 25.04 0.7 33.2 51 -8.4 16.9
04:30 1019 30.09 848 25.04 0.6 33.1 51 -8.4 16.9
04:35 1019 30.09 848 25.04 0.6 33.1 51 -8.5 16.7
04:40 1019 30.09 848 25.04 0.7 33.2 50 -8.5 16.7
04:45 1019 30.09 848 25.04 0.8 33.5 51 -8.3 17.1
04:50 1019 30.09 848 25.04 0.8 33.5 51 -8.2 17.2
04:55 1019 30.09 848 25.04 0.9 33.6 51 -8.2 17.3
05:00 1019 30.09 848 25.04 0.6 33.1 53 -8 17.6
05:05 1019 30.09 848 25.04 0.7 33.2 52 -8.1 17.4
05:10 1019 30.09 848 25.04 0.7 33.3 51 -8.3 17
05:15 1019 30.09 848 25.04 0.8 33.4 51 -8.3 17.1
05:20 1019 30.09 848 25.04 0.8 33.4 51 -8.3 17.1
05:25 1019 30.09 848 25.04 0.8 33.4 51 -8.2 17.2
05:30 1019 30.09 848 25.04 0.8 33.5 51 -8.1 17.4
05:35 1019 30.09 848 25.04 0.8 33.5 51 -8.2 17.3
05:40 1019 30.09 848 25.04 0.9 33.6 51 -8.2 17.2
05:45 1019 30.09 848 25.04 0.8 33.5 52 -8 17.6
05:50 1019 30.09 848 25.04 0.7 33.3 53 -7.9 17.8
05:55 1019 30.09 848 25.04 0.8 33.4 53 -7.8 17.9
06:00 1019 30.09 848 25.04 0.8 33.4 53 -7.8 18
06:05 1019 30.09 849 25.07 0.5 32.9 55 -7.5 18.5
06:10 1019 30.09 849 25.07 0.3 32.5 56 -7.5 18.4
06:15 1019 30.09 849 25.07 -0 32 57 -7.6 18.4
06:20 1019 30.09 849 25.07 -0.1 31.8 57 -7.7 18.2
06:25 1019 30.09 848 25.04 0.1 32.1 56 -7.8 18
06:30 1019 30.09 849 25.07 0.1 32.2 56 -7.8 18
06:35 1019 30.09 849 25.07 0.2 32.3 55 -7.9 17.8
06:40 1019 30.09 849 25.07 0.6 33.1 52 -8.1 17.3
06:45 1019 30.09 849 25.07 0.9 33.6 52 -8 17.7
06:50 1019 30.09 849 25.07 1 33.8 52 -7.9 17.8
06:55 1019 30.09 849 25.07 1.1 33.9 51 -7.9 17.8
07:00 1020 30.12 849 25.07 1.1 34 52 -7.8 18
07:05 1020 30.12 849 25.07 1.2 34.2 51 -7.7 18.2
07:10 1020 30.12 849 25.07 1.4 34.5 52 -7.5 18.4
07:15 1020 30.12 849 25.07 1.5 34.7 50 -7.8 18
07:20 1020 30.12 849 25.07 1.7 35.1 50 -7.5 18.4
07:25 1020 30.12 849 25.07 1.8 35.2 49 -7.9 17.8
07:30 1020 30.12 849 25.07 1.8 35.2 49 -7.7 18.1
07:35 1020 30.12 849 25.07 1.8 35.3 49 -7.9 17.8
07:40 1020 30.12 849 25.07 1.4 34.6 50 -7.8 18
07:45 1020 30.12 849 25.07 1.5 34.8 50 -7.7 18.2
07:50 1020 30.12 849 25.07 1.7 35.1 50 -7.7 18.1
07:55 1020 30.12 849 25.07 1.8 35.3 50 -7.6 18.3
08:00 1020 30.12 849 25.07 1.9 35.3 50 -7.6 18.3
08:05 1020 30.12 849 25.07 1.9 35.4 50 -7.5 18.5
08:10 1020 30.12 849 25.07 2 35.6 49 -7.6 18.3
08:15 1020 30.12 849 25.07 2.1 35.7 49 -7.7 18.2
08:20 1020 30.12 849 25.07 2.2 35.9 49 -7.6 18.4
08:25 1020 30.12 849 25.07 2.3 36.1 48 -7.5 18.4
08:30 1020 30.12 849 25.07 2.3 36.1 48 -7.5 18.4
08:35 1020 30.12 850 25.1 2.2 36 49 -7.5 18.5
08:40 1020 30.12 850 25.1 1.9 35.5 50 -7.4 18.7
08:45 1020 30.12 850 25.1 1.8 35.2 53 -6.7 19.9
08:50 1020 30.12 850 25.1 1.5 34.6 56 -6.4 20.5
08:55 1020 30.12 850 25.1 1.4 34.6 57 -6.1 21
09:00 1020 30.12 850 25.1 1.3 34.3 59 -5.8 21.5
09:05 1020 30.12 850 25.1 1.2 34.1 59 -6 21.2
09:10 1020 30.12 850 25.1 1.8 35.2 56 -6 21.2
09:15 1020 30.12 850 25.1 2.4 36.3 53 -6.2 20.8
09:20 1020 30.12 850 25.1 3.2 37.7 49 -6.6 20.1
09:25 1020 30.12 850 25.1 3.2 37.8 48 -6.8 19.8
09:30 1020 30.12 850 25.1 3.3 38 47 -6.8 19.8
09:35 1020 30.12 850 25.1 3.7 38.6 46 -7 19.4
09:40 1020 30.12 850 25.1 3.4 38 47 -6.9 19.6
09:45 1020 30.12 849 25.07 3.3 37.9 45 -7.6 18.4
09:50 1020 30.12 849 25.07 4 39.2 40 -8.6 16.6
09:55 1020 30.12 849 25.07 4.1 39.4 39 -8.6 16.4
10:00 1020 30.12 849 25.07 3.9 39 41 -8.2 17.2
10:05 1020 30.12 849 25.07 3.6 38.5 41 -8.3 17
10:10 1020 30.12 849 25.07 3.7 38.7 38 -9.3 15.2
10:15 1020 30.12 849 25.07 3.9 38.9 39 -8.9 15.9
10:20 1020 30.12 849 25.07 3.6 38.4 40 -8.7 16.4
10:25 1020 30.12 849 25.07 3.4 38.2 40 -8.9 15.9
10:30 1020 30.12 849 25.07 4.3 39.7 36 -9.4 15.1
10:35 1020 30.12 849 25.07 3.9 39 38 -9.1 15.7
10:40 1020 30.12 849 25.07 3.9 39.1 38 -9.2 15.4
10:45 1020 30.12 849 25.07 4.2 39.5 41 -8 17.6
10:50 1020 30.12 849 25.07 3.9 39 46 -6.6 20
10:55 1020 30.12 849 25.07 3.4 38.1 49 -6.3 20.6
11:00 1020 30.12 850 25.1 3 37.5 50 -6.3 20.7
11:05 1020 30.12 849 25.07 3.5 38.3 41 -8.5 16.7
11:10 1020 30.12 849 25.07 4.6 40.3 37 -8.7 16.3
11:15 1020 30.12 850 25.1 4.6 40.2 49 -5.3 22.4
11:20 1020 30.12 850 25.1 2.5 36.5 56 -5.4 22.3
11:25 1021 30.15 850 25.1 1.9 35.3 55 -6.4 20.6
11:30 1021 30.15 850 25.1 2.3 36.1 45 -8.5 16.7
11:35 1021 30.15 850 25.1 2.6 36.7 47 -7.6 18.3
11:40 1021 30.15 850 25.1 2.8 37 46 -7.8 17.9
11:45 1021 30.15 850 25.1 3.1 37.6 46 -7.4 18.8
11:50 1021 30.15 850 25.1 4.1 39.4 43 -7.4 18.8
11:55 1021 30.15 850 25.1 5.3 41.6 37 -8.1 17.5
12:00 1021 30.15 850 25.1 5.7 42.2 36 -8.3 17
12:05 1021 30.15 850 25.1 6.4 43.5 31 -9.4 15
12:10 1021 30.15 850 25.1 5.7 42.2 32 -9.7 14.5
12:15 1021 30.15 850 25.1 6.1 43 33 -8.9 16
12:20 1021 30.15 850 25.1 6.4 43.6 33 -8.9 16
12:25 1021 30.15 850 25.1 5.8 42.4 33 -9.4 15.1
12:30 1021 30.15 850 25.1 6.5 43.7 30 -9.7 14.5
12:35 1021 30.15 850 25.1 6.8 44.2 30 -9.8 14.4
12:40 1021 30.15 850 25.1 6.8 44.2 31 -9.2 15.4
12:45 1020 30.12 850 25.1 6.5 43.7 31 -9.3 15.3
12:50 1020 30.12 850 25.1 6.2 43.1 32 -9.2 15.5
12:55 1020 30.12 850 25.1 5.9 42.5 32 -9.4 15
13:00 1020 30.12 850 25.1 6.4 43.5 32 -9.1 15.5
13:05 1021 30.15 850 25.1 6.7 44 30 -9.7 14.5
13:10 1020 30.12 850 25.1 6.6 43.9 31 -9.4 15.1
13:15 1020 30.12 850 25.1 7.1 44.7 29 -9.7 14.6
13:20 1020 30.12 850 25.1 6.8 44.3 30 -9.6 14.7
13:25 1020 30.12 849 25.07 6.9 44.5 30 -9.6 14.7
13:30 1020 30.12 850 25.1 7.8 46 25 -11.2 11.8
13:35 1020 30.12 849 25.07 7.6 45.6 26 -10.9 12.3
13:40 1020 30.12 849 25.07 7.5 45.5 26 -10.8 12.6
13:45 1020 30.12 849 25.07 8.3 46.9 24 -10.9 12.4
13:50 1020 30.12 850 25.1 8.8 47.8 23 -11.1 12
13:55 1020 30.12 849 25.07 9.2 48.6 24 -10.5 13
14:00 1020 30.12 849 25.07 9.1 48.3 24 -10.6 12.8
14:05 1020 30.12 849 25.07 9 48.1 23 -11 12.2
14:10 1020 30.12 849 25.07 8.4 47 23 -11.7 10.9
14:15 1020 30.12 849 25.07 8.4 47 23 -11.8 10.7
14:20 1020 30.12 849 25.07 9.4 48.9 20 -12.7 9.2
14:25 1020 30.12 849 25.07 8.9 48.1 22 -11.4 11.5
14:30 1020 30.12 849 25.07 8.6 47.5 23 -11.5 11.3
14:35 1020 30.12 849 25.07 9.1 48.3 23 -11 12.2
14:40 1020 30.12 849 25.07 9.3 48.7 24 -10.4 13.2
14:45 1020 30.12 849 25.07 8.7 47.6 20 -13.2 8.2
14:50 1020 30.12 849 25.07 9.1 48.3 21 -12.4 9.7
14:55 1020 30.12 849 25.07 9.4 49 20 -12.6 9.3
15:00 1020 30.12 849 25.07 10.1 50.1 19 -12.4 9.6
15:05 1020 30.12 849 25.07 9.8 49.6 19 -12.8 8.9
15:10 1020 30.12 849 25.07 9.5 49.2 19 -12.7 9.1
15:15 1020 30.12 849 25.07 10.1 50.1 18 -13.4 7.8
15:20 1020 30.12 849 25.07 10.7 51.2 18 -12.6 9.3
15:25 1020 30.12 849 25.07 10.6 51.1 18 -13 8.6
15:30 1020 30.12 849 25.07 10.1 50.1 19 -12.7 9.2
15:35 1020 30.12 849 25.07 9.5 49.1 19 -13.2 8.2
15:40 1020 30.12 849 25.07 10.3 50.6 18 -13.2 8.2
15:45 1020 30.12 849 25.07 10.8 51.5 18 -12.9 8.9
15:50 1020 30.12 849 25.07 10.7 51.3 17 -13.2 8.3
15:55 1020 30.12 849 25.07 10.6 51 17 -13.3 8.1
16:00 1020 30.12 849 25.07 10.7 51.2 17 -13.3 8.1
16:05 1020 30.12 849 25.07 11 51.7 16 -14.1 6.6
16:10 1020 30.12 849 25.07 10.8 51.4 16 -14.2 6.4
16:15 1020 30.12 849 25.07 11.1 51.9 16 -14.1 6.6
16:20 1020 30.12 849 25.07 10.5 50.9 15 -14.9 5.2
16:25 1020 30.12 849 25.07 10.5 50.9 15 -15 5
16:30 1020 30.12 849 25.07 11 51.9 15 -14.3 6.3
16:35 1020 30.12 849 25.07 10.5 50.8 16 -14.4 6
16:40 1020 30.12 849 25.07 10.1 50.1 16 -14.9 5.2
16:45 1020 30.12 849 25.07 10.5 50.8 16 -14.4 6
16:50 1020 30.12 849 25.07 10.8 51.4 15 -14.8 5.4
16:55 1020 30.12 849 25.07 10.7 51.3 15 -14.6 5.8
17:00 1020 30.12 849 25.07 10.2 50.4 16 -14.7 5.5
17:05 1020 30.12 849 25.07 9.4 48.9 17 -14.7 5.5
17:10 1020 30.12 849 25.07 9.3 48.8 17 -14.4 6.1
17:15 1020 30.12 849 25.07 9.7 49.4 18 -13.6 7.5
17:20 1019 30.09 849 25.07 10 50.1 18 -13.4 7.9
17:25 1019 30.09 849 25.07 9.8 49.6 17 -14.6 5.8
17:30 1019 30.09 849 25.07 9.8 49.7 16 -14.8 5.3
17:35 1019 30.09 849 25.07 10.4 50.7 17 -13.9 6.9
17:40 1019 30.09 849 25.07 10.9 51.5 16 -14.3 6.2
17:45 1019 30.09 849 25.07 10.5 50.9 16 -14.4 6.1
17:50 1019 30.09 849 25.07 10.9 51.5 16 -14 6.8
17:55 1019 30.09 849 25.07 10.4 50.8 18 -13.1 8.5
18:00 1019 30.09 849 25.07 10.2 50.3 18 -13.4 7.9
18:05 1019 30.09 849 25.07 10.4 50.6 17 -13.4 7.8
18:10 1019 30.09 849 25.07 10.4 50.7 16 -14.4 6
18:15 1019 30.09 849 25.07 10.9 51.6 15 -14.6 5.7
18:20 1019 30.09 849 25.07 10.9 51.7 15 -14.6 5.7
18:25 1019 30.09 849 25.07 11.3 52.3 16 -14.1 6.7
18:30 1019 30.09 849 25.07 10.6 51.1 17 -13.9 7.1
18:35 1019 30.09 849 25.07 10.6 51 16 -14.3 6.3
18:40 1019 30.09 849 25.07 10.8 51.4 16 -14.3 6.3
18:45 1019 30.09 849 25.07 10.9 51.5 16 -14.3 6.2
18:50 1019 30.09 849 25.07 10.8 51.5 16 -14.2 6.5
18:55 1019 30.09 849 25.07 10.3 50.5 19 -12.6 9.3
19:00 1020 30.12 849 25.07 10 50.1 18 -13.6 7.6
19:05 1020 30.12 849 25.07 10.2 50.4 17 -13.5 7.7
19:10 1020 30.12 849 25.07 10 50.1 18 -13.5 7.8
19:15 1020 30.12 849 25.07 10.2 50.3 18 -13.3 8
19:20 1020 30.12 849 25.07 10.1 50.2 19 -12.8 9
19:25 1020 30.12 849 25.07 9.9 49.8 18 -13.4 7.9
19:30 1020 30.12 849 25.07 9.7 49.4 18 -13.6 7.5
19:35 1020 30.12 849 25.07 9.5 49 19 -13.2 8.3
19:40 1020 30.12 849 25.07 9.3 48.7 20 -12.7 9.1
19:45 1020 30.12 849 25.07 9.3 48.7 20 -12.3 9.8
19:50 1020 30.12 849 25.07 9.1 48.4 21 -12.2 10
19:55 1020 30.12 849 25.07 8.9 48.1 21 -12 10.3
20:00 1020 30.12 849 25.07 8.7 47.6 22 -12 10.4
20:05 1020 30.12 849 25.07 8.6 47.5 20 -12.9 8.7
20:10 1020 30.12 849 25.07 8.6 47.4 21 -12.6 9.4
20:15 1020 30.12 849 25.07 8.4 47.2 21 -12.4 9.6
20:20 1020 30.12 849 25.07 8.4 47 20 -13.5 7.6
20:25 1020 30.12 849 25.07 8.6 47.4 20 -13.1 8.4
20:30 1020 30.12 849 25.07 8.6 47.5 20 -12.9 8.9
20:35 1020 30.12 849 25.07 8.7 47.7 20 -12.8 8.9
20:40 1020 30.12 849 25.07 8.8 47.8 20 -12.9 8.8
20:45 1020 30.12 849 25.07 8.8 47.8 19 -13.5 7.8
20:50 1020 30.12 849 25.07 8.7 47.7 20 -12.9 8.9
20:55 1020 30.12 849 25.07 8.6 47.5 22 -12 10.4
21:00 1020 30.12 849 25.07 8.4 47.1 23 -11.4 11.4
21:05 1020 30.12 849 25.07 8.2 46.7 25 -10.8 12.6
21:10 1020 30.12 850 25.1 8 46.4 26 -10.3 13.4
21:15 1020 30.12 850 25.1 7.9 46.2 27 -10.2 13.7
21:20 1020 30.12 850 25.1 7.9 46.2 25 -10.8 12.5
21:25 1020 30.12 850 25.1 8.1 46.6 26 -10.4 13.3
21:30 1021 30.15 850 25.1 8 46.4 27 -9.8 14.3
21:35 1021 30.15 850 25.1 7.9 46.1 27 -10.2 13.6
21:40 1021 30.15 850 25.1 8 46.4 25 -10.9 12.4
21:45 1021 30.15 850 25.1 8.1 46.5 24 -11.4 11.4
21:50 1021 30.15 850 25.1 7.9 46.1 25 -11.1 12.1
21:55 1021 30.15 850 25.1 7.8 46.1 25 -10.9 12.4
22:00 1021 30.15 850 25.1 7.6 45.7 26 -10.9 12.4
22:05 1021 30.15 850 25.1 7.5 45.6 26 -10.9 12.3
22:10 1021 30.15 851 25.13 7.5 45.5 26 -10.7 12.7
22:15 1021 30.15 851 25.13 7.5 45.5 26 -10.7 12.8
22:20 1022 30.18 851 25.13 7.4 45.3 27 -10.5 13
22:25 1022 30.18 851 25.13 7.4 45.2 27 -10.5 13.1
22:30 1022 30.18 851 25.13 7.3 45.1 28 -9.9 14.3
22:35 1022 30.18 851 25.13 7.2 44.9 29 -9.9 14.2
22:40 1022 30.18 851 25.13 7 44.6 27 -10.6 13
22:45 1022 30.18 851 25.13 7 44.6 27 -10.7 12.7
22:50 1022 30.18 851 25.13 7 44.7 27 -10.5 13.1
22:55 1022 30.18 851 25.13 6.9 44.4 28 -10.5 13.1
23:00 1022 30.18 851 25.13 6.9 44.3 28 -10.3 13.5
23:05 1022 30.18 851 25.13 6.7 44.1 29 -10 14
23:10 1022 30.18 851 25.13 6.6 43.9 30 -9.9 14.1
23:15 1022 30.18 851 25.13 6.6 43.8 30 -9.7 14.5
23:20 1022 30.18 851 25.13 6.4 43.5 30 -9.8 14.4
23:25 1022 30.18 851 25.13 6.3 43.3 31 -9.6 14.8
23:30 1022 30.18 851 25.13 6.2 43.1 32 -9.4 15
23:35 1022 30.18 851 25.13 6.1 42.9 31 -9.8 14.4
23:40 1022 30.18 851 25.13 5.9 42.6 32 -9.5 14.9
23:45 1022 30.18 851 25.13 5.5 41.9 34 -9.2 15.4
23:50 1022 30.18 851 25.13 5.3 41.6 35 -9.1 15.7
23:55 1022 30.18 851 25.13 5.4 41.7 33 -9.5 14.9
24:00 1022 30.18 851 25.13 5.6 42 33 -9.3 15.2